KPQI/PQI METAR and TAF weather

Enter ICAO airport designator
Station Type Date Time Source
KPQI METAR 2019/12/08 00:56 UTC NOAA

KPQI 080056Z AUTO 27004KT 10SM CLR M13/M15 A3025 RMK AO2 SLP283 T11281150


Station Type Date Time Source
KPQI Decoded METAR 2019/12/08 00:56 UTC NOAA

Presque Isle, ME, United States (KPQI) 46-41N 068-03W 146M
Dec 07, 2019 - 07:56 PM EST / 2019.12.08 0056 UTC
Wind: from the W (270 degrees) at 5 MPH (4 KT):0
Visibility: 10 mile(s):0
Sky conditions: clear
Temperature: 9.0 F (-12.8 C)
Windchill: 0 F (-18 C):1
Dew Point: 5.0 F (-15.0 C)
Relative Humidity: 83%
Pressure (altimeter): 30.25 in. Hg (1024 hPa)
ob: KPQI 080056Z AUTO 27004KT 10SM CLR M13/M15 A3025 RMK AO2 SLP283 T11281150
cycle: 1

Station Type Date Time Source
KPQI TAF 2019/12/07 18:22 UTC NOAA

TAF KPQI 071720Z 0718/0818 31010KT P6SM SCT030
FM080300 27004KT P6SM SCT030
FM081200 21003KT P6SM FEW100
FM081700 18007KT P6SM SCT200

Example: see airport list